createdAt,value
2022-09-30T00:01:32.794Z,5.66
2022-09-30T00:04:03.146Z,5.62
2022-09-30T00:06:31.463Z,5.60
2022-09-30T00:08:59.787Z,5.62
2022-09-30T00:11:29.672Z,5.59
2022-09-30T00:13:58.831Z,5.57
2022-09-30T00:16:29.678Z,5.53
2022-09-30T00:18:58.721Z,5.52
2022-09-30T00:21:29.197Z,5.52
2022-09-30T00:23:57.607Z,5.50
2022-09-30T00:26:25.639Z,5.53
2022-09-30T00:28:55.861Z,5.53
2022-09-30T00:31:26.081Z,5.49
2022-09-30T00:34:07.917Z,5.49
2022-09-30T00:36:40.296Z,5.46
2022-09-30T00:39:09.562Z,5.45
2022-09-30T00:41:38.282Z,5.45
2022-09-30T00:44:55.069Z,5.40
2022-09-30T00:47:35.020Z,5.38
2022-09-30T00:50:06.584Z,5.39
2022-09-30T00:52:35.866Z,5.35
2022-09-30T00:55:08.230Z,5.35
2022-09-30T00:57:36.233Z,5.31
2022-09-30T01:00:05.839Z,5.31
2022-09-30T01:02:34.062Z,5.29
2022-09-30T01:05:02.663Z,5.28
2022-09-30T01:07:30.889Z,5.25
2022-09-30T01:10:00.312Z,5.25
2022-09-30T01:12:28.268Z,5.24
2022-09-30T01:14:57.931Z,5.22
2022-09-30T01:17:34.886Z,5.19
2022-09-30T01:20:27.533Z,5.21
2022-09-30T01:23:10.329Z,5.21
2022-09-30T01:26:04.688Z,5.18
2022-09-30T01:29:12.030Z,5.15
2022-09-30T01:31:50.649Z,5.19
2022-09-30T01:34:26.233Z,5.16
2022-09-30T01:37:04.413Z,5.21
2022-09-30T01:39:41.924Z,5.24
2022-09-30T01:42:15.073Z,5.26
2022-09-30T01:44:49.955Z,5.25
2022-09-30T01:47:25.980Z,5.22
2022-09-30T01:49:58.718Z,5.21
2022-09-30T01:52:31.267Z,5.18
2022-09-30T01:55:15.076Z,5.15
2022-09-30T01:57:46.934Z,5.15
2022-09-30T02:00:15.340Z,5.12
2022-09-30T02:02:49.104Z,5.09
2022-09-30T02:05:21.454Z,5.07
2022-09-30T02:07:50.410Z,5.05
2022-09-30T02:10:21.979Z,5.04
2022-09-30T02:12:52.953Z,4.99
2022-09-30T02:15:24.100Z,4.98
2022-09-30T02:17:56.401Z,4.95
2022-09-30T02:20:25.601Z,4.94
2022-09-30T02:22:57.867Z,4.94
2022-09-30T02:25:27.434Z,4.95
2022-09-30T02:27:58.705Z,4.99
2022-09-30T02:30:27.382Z,4.97
2022-09-30T02:32:59.814Z,4.97
2022-09-30T02:35:30.313Z,4.99
2022-09-30T02:38:03.525Z,4.97
2022-09-30T02:40:36.514Z,4.94
2022-09-30T02:43:05.668Z,4.95
2022-09-30T02:45:37.857Z,4.89
2022-09-30T02:48:14.256Z,4.87
2022-09-30T02:50:47.731Z,4.85
2022-09-30T02:53:21.548Z,4.85
2022-09-30T02:56:04.152Z,4.92
2022-09-30T02:58:36.528Z,4.91
2022-09-30T03:01:04.765Z,4.88
2022-09-30T03:03:36.604Z,4.85
2022-09-30T03:06:04.960Z,4.81
2022-09-30T03:08:32.927Z,4.80
2022-09-30T03:11:00.854Z,4.76
2022-09-30T03:13:57.441Z,4.77
2022-09-30T03:16:34.099Z,4.76
2022-09-30T03:19:18.215Z,4.78
2022-09-30T03:22:07.459Z,4.77
2022-09-30T03:24:51.230Z,4.74
2022-09-30T03:27:24.741Z,4.73
2022-09-30T03:29:59.768Z,4.68
2022-09-30T03:32:41.100Z,4.70
2022-09-30T03:35:19.127Z,4.66
2022-09-30T03:37:53.482Z,4.64
2022-09-30T03:40:27.802Z,4.64
2022-09-30T03:42:58.996Z,4.64
2022-09-30T03:45:30.522Z,4.61
2022-09-30T03:48:00.809Z,4.60
2022-09-30T03:50:31.377Z,4.57
2022-09-30T03:52:59.436Z,4.57
2022-09-30T03:55:27.891Z,4.54
2022-09-30T03:57:57.736Z,4.59
2022-09-30T04:00:25.728Z,4.59
2022-09-30T04:02:57.735Z,4.61
2022-09-30T04:05:25.994Z,4.57
2022-09-30T04:07:55.170Z,4.53
2022-09-30T04:10:23.100Z,4.59
2022-09-30T04:12:54.262Z,4.54
2022-09-30T04:15:22.240Z,4.54
2022-09-30T04:17:50.192Z,4.56
2022-09-30T04:20:18.109Z,4.54
2022-09-30T04:22:46.120Z,4.54
2022-09-30T04:25:15.486Z,4.50
2022-09-30T04:27:43.447Z,4.47
2022-09-30T04:30:12.288Z,4.49
2022-09-30T04:32:45.515Z,4.47
2022-09-30T04:35:14.026Z,4.45
2022-09-30T04:37:43.915Z,4.46
2022-09-30T04:40:12.462Z,4.45
2022-09-30T04:42:43.054Z,4.45
2022-09-30T04:45:12.312Z,4.43
2022-09-30T04:47:40.312Z,4.42
2022-09-30T04:50:08.972Z,4.40
2022-09-30T04:52:38.313Z,4.36
2022-09-30T04:55:07.394Z,4.36
2022-09-30T04:57:35.362Z,4.33
2022-09-30T05:00:05.645Z,4.30
2022-09-30T05:02:33.540Z,4.33
2022-09-30T05:05:03.031Z,4.32
2022-09-30T05:07:32.113Z,4.32
2022-09-30T05:10:00.042Z,4.35
2022-09-30T05:12:28.044Z,4.33
2022-09-30T05:14:56.045Z,4.39
2022-09-30T05:17:25.372Z,4.36
2022-09-30T05:19:53.429Z,4.45
2022-09-30T05:22:23.183Z,4.43
2022-09-30T05:24:51.416Z,4.39
2022-09-30T05:27:19.571Z,4.43
2022-09-30T05:29:47.521Z,4.43
2022-09-30T05:32:15.649Z,4.49
2022-09-30T05:34:44.993Z,4.59
2022-09-30T05:37:15.078Z,4.68
2022-09-30T05:39:43.111Z,4.74
2022-09-30T05:42:14.057Z,4.81
2022-09-30T05:44:42.145Z,4.91
2022-09-30T05:47:11.624Z,4.99
2022-09-30T05:49:40.143Z,5.08
2022-09-30T05:52:09.406Z,5.18
2022-09-30T05:54:37.395Z,5.26
2022-09-30T05:57:05.617Z,5.36
2022-09-30T05:59:33.606Z,5.47
2022-09-30T06:02:02.062Z,5.66
2022-09-30T06:04:30.110Z,5.86
2022-09-30T06:06:58.242Z,6.03
2022-09-30T06:09:27.670Z,6.15
2022-09-30T06:11:58.064Z,6.31
2022-09-30T06:14:26.242Z,6.38
2022-09-30T06:16:54.759Z,6.57
2022-09-30T06:19:22.917Z,6.80
2022-09-30T06:21:50.912Z,7.08
2022-09-30T06:24:19.144Z,7.35
2022-09-30T06:26:52.461Z,7.59
2022-09-30T06:29:20.548Z,7.76
2022-09-30T06:31:48.680Z,8.00
2022-09-30T06:34:18.896Z,8.31
2022-09-30T06:36:46.967Z,8.67
2022-09-30T06:39:14.969Z,9.05
2022-09-30T06:41:44.147Z,9.36
2022-09-30T06:44:13.749Z,9.81
2022-09-30T06:46:53.158Z,10.18
2022-09-30T06:49:22.353Z,10.59
2022-09-30T06:51:51.204Z,10.95
2022-09-30T06:54:21.047Z,11.22
2022-09-30T06:56:49.904Z,11.55
2022-09-30T06:59:19.396Z,11.80
2022-09-30T07:01:47.388Z,12.04
2022-09-30T07:04:16.280Z,12.22
2022-09-30T07:06:44.839Z,12.44
2022-09-30T07:09:12.930Z,12.73
2022-09-30T07:11:41.136Z,13.00
2022-09-30T07:14:10.178Z,13.21
2022-09-30T07:16:39.454Z,13.45
2022-09-30T07:19:10.217Z,13.58
2022-09-30T07:21:38.328Z,13.75
2022-09-30T07:24:06.309Z,14.02
2022-09-30T07:26:34.273Z,14.26
2022-09-30T07:29:02.418Z,14.50
2022-09-30T07:31:33.666Z,14.65
2022-09-30T07:34:04.116Z,14.85
2022-09-30T07:36:33.742Z,15.06
2022-09-30T07:39:06.114Z,15.26
2022-09-30T07:41:35.987Z,15.32
2022-09-30T07:44:05.547Z,15.44
2022-09-30T07:46:36.256Z,15.50
2022-09-30T07:49:08.722Z,15.65
2022-09-30T07:51:38.923Z,15.81
2022-09-30T07:54:08.567Z,15.95
2022-09-30T07:57:05.098Z,16.05
2022-09-30T07:59:27.392Z,16.28
2022-09-30T08:01:55.798Z,16.47
2022-09-30T08:04:26.622Z,16.62
2022-09-30T08:06:56.179Z,16.81
2022-09-30T08:09:26.204Z,17.04
2022-09-30T08:11:54.560Z,17.25
2022-09-30T08:14:23.846Z,17.39
2022-09-30T08:16:52.317Z,17.56
2022-09-30T08:19:23.555Z,17.73
2022-09-30T08:21:54.410Z,17.72
2022-09-30T08:24:23.136Z,17.67
2022-09-30T08:26:51.368Z,17.73
2022-09-30T08:32:07.844Z,17.79
2022-09-30T08:34:36.111Z,17.89
2022-09-30T08:37:09.335Z,18.03
2022-09-30T08:39:37.706Z,18.27
2022-09-30T08:45:18.290Z,18.64
2022-09-30T08:47:51.504Z,18.73
2022-09-30T08:50:24.471Z,18.86
2022-09-30T08:52:56.272Z,18.95
2022-09-30T08:55:26.075Z,19.10
2022-09-30T08:57:54.995Z,19.27
2022-09-30T09:00:23.465Z,19.37
2022-09-30T09:02:53.744Z,19.53
2022-09-30T09:05:29.908Z,19.57
2022-09-30T09:08:03.551Z,19.61
2022-09-30T09:10:39.171Z,19.72
2022-09-30T09:13:15.029Z,19.89
2022-09-30T09:15:53.586Z,19.96
2022-09-30T09:18:35.069Z,19.89
2022-09-30T09:21:14.470Z,19.96
2022-09-30T09:23:44.656Z,20.16
2022-09-30T09:26:14.224Z,20.27
2022-09-30T09:28:49.176Z,20.40
2022-09-30T09:31:20.654Z,20.39
2022-09-30T09:33:48.755Z,20.29
2022-09-30T09:36:25.554Z,20.13
2022-09-30T09:39:12.447Z,20.20
2022-09-30T09:41:45.569Z,19.98
2022-09-30T09:44:19.648Z,19.86
2022-09-30T09:46:50.221Z,19.83
2022-09-30T09:49:30.129Z,19.95
2022-09-30T09:52:23.909Z,20.13
2022-09-30T09:54:56.648Z,20.32
2022-09-30T09:57:32.211Z,20.39
2022-09-30T10:00:22.244Z,20.29
2022-09-30T10:03:01.759Z,20.15
2022-09-30T10:05:39.604Z,20.09
2022-09-30T10:08:13.533Z,20.20
2022-09-30T10:10:46.773Z,20.15
2022-09-30T10:13:22.919Z,20.09
2022-09-30T10:15:53.439Z,20.17
2022-09-30T10:18:26.109Z,20.32
2022-09-30T10:20:57.477Z,20.59
2022-09-30T10:23:31.501Z,20.55
2022-09-30T10:26:04.785Z,20.53
2022-09-30T10:28:35.084Z,20.64
2022-09-30T10:31:05.895Z,20.73
2022-09-30T10:33:37.398Z,20.94
2022-09-30T10:36:08.644Z,20.96
2022-09-30T10:41:07.655Z,20.70
2022-09-30T10:43:41.731Z,20.57
2022-09-30T10:46:27.280Z,20.64
2022-09-30T10:48:57.188Z,20.84
2022-09-30T10:51:28.588Z,20.94
2022-09-30T10:53:57.508Z,20.91
2022-09-30T10:56:46.843Z,20.90
2022-09-30T10:59:27.017Z,20.96
2022-09-30T11:01:58.641Z,21.03
2022-09-30T11:04:31.277Z,21.01
2022-09-30T11:07:04.668Z,20.75
2022-09-30T11:09:37.829Z,20.61
2022-09-30T11:12:13.690Z,20.40
2022-09-30T11:14:45.567Z,20.43
2022-09-30T11:17:24.735Z,20.27
2022-09-30T11:19:57.277Z,20.10
2022-09-30T11:22:33.131Z,20.19
2022-09-30T11:25:01.281Z,20.32
2022-09-30T11:27:39.966Z,20.27
2022-09-30T11:30:13.434Z,20.05
2022-09-30T11:32:49.407Z,19.79
2022-09-30T11:35:31.209Z,19.59
2022-09-30T11:38:10.181Z,19.48
2022-09-30T11:40:45.036Z,19.64
2022-09-30T11:43:23.618Z,19.57
2022-09-30T11:46:12.510Z,19.40
2022-09-30T11:48:51.712Z,19.17
2022-09-30T11:51:25.125Z,19.14
2022-09-30T11:54:02.073Z,19.04
2022-09-30T11:56:40.215Z,18.99
2022-09-30T11:59:16.405Z,18.78
2022-09-30T12:01:47.249Z,18.75
2022-09-30T12:04:18.553Z,18.83
2022-09-30T12:06:50.569Z,18.85
2022-09-30T12:09:23.777Z,18.78
2022-09-30T12:11:56.556Z,18.71
2022-09-30T12:14:29.454Z,18.49
2022-09-30T12:16:57.844Z,18.42
2022-09-30T12:19:29.183Z,18.37
2022-09-30T12:22:00.206Z,18.28
2022-09-30T12:24:32.584Z,18.21
2022-09-30T12:27:01.923Z,18.13
2022-09-30T12:29:52.720Z,17.97
2022-09-30T12:33:25.142Z,17.80
2022-09-30T12:36:33.062Z,17.84
2022-09-30T12:39:27.644Z,17.79
2022-09-30T12:42:14.345Z,17.81
2022-09-30T12:45:10.740Z,17.90
2022-09-30T12:47:45.728Z,17.91
2022-09-30T12:50:15.540Z,17.86
2022-09-30T12:52:44.374Z,17.79
2022-09-30T12:55:22.740Z,17.63
2022-09-30T12:57:51.350Z,17.62
2022-09-30T13:00:22.876Z,17.63
2022-09-30T13:02:56.082Z,17.63
2022-09-30T13:05:51.861Z,17.53
2022-09-30T13:08:48.222Z,17.53
2022-09-30T13:11:36.351Z,17.42
2022-09-30T13:14:28.849Z,17.43
2022-09-30T13:17:22.418Z,17.42
2022-09-30T13:19:52.628Z,17.36
2022-09-30T13:22:42.840Z,17.29
2022-09-30T13:25:15.655Z,17.24
2022-09-30T13:27:45.272Z,17.27
2022-09-30T13:30:40.172Z,17.24
2022-09-30T13:33:32.703Z,17.31
2022-09-30T13:36:10.211Z,17.36
2022-09-30T13:38:40.783Z,17.45
2022-09-30T13:41:16.229Z,17.39
2022-09-30T13:43:46.422Z,17.38
2022-09-30T13:46:23.267Z,17.34
2022-09-30T13:48:58.614Z,17.35
2022-09-30T13:51:29.307Z,17.28
2022-09-30T13:53:59.818Z,17.16
2022-09-30T13:56:30.906Z,17.07
2022-09-30T13:59:20.044Z,17.02
2022-09-30T14:02:02.459Z,16.97
2022-09-30T14:04:47.472Z,16.91
2022-09-30T14:07:26.171Z,16.90
2022-09-30T14:10:09.231Z,16.84
2022-09-30T14:12:53.294Z,16.77
2022-09-30T14:15:47.194Z,16.74
2022-09-30T14:18:29.117Z,16.70
2022-09-30T14:21:06.782Z,16.71
2022-09-30T14:23:36.687Z,16.66
2022-09-30T14:26:16.628Z,16.57
2022-09-30T14:28:49.802Z,16.52
2022-09-30T14:31:19.018Z,16.47
2022-09-30T14:33:50.212Z,16.47
2022-09-30T14:36:20.392Z,16.47
2022-09-30T14:38:52.343Z,16.50
2022-09-30T14:41:22.224Z,16.56
2022-09-30T14:43:53.066Z,16.57
2022-09-30T14:46:30.214Z,16.63
2022-09-30T14:49:04.503Z,16.70
2022-09-30T14:51:36.808Z,16.71
2022-09-30T14:54:06.445Z,16.70
2022-09-30T14:56:36.206Z,16.70
2022-09-30T14:59:17.735Z,16.73
2022-09-30T15:01:47.977Z,16.71
2022-09-30T15:04:23.533Z,16.66
2022-09-30T15:06:54.769Z,16.57
2022-09-30T15:09:28.013Z,16.62
2022-09-30T15:11:56.438Z,16.60
2022-09-30T15:14:26.255Z,16.55
2022-09-30T15:16:55.953Z,16.44
2022-09-30T15:19:28.017Z,16.37
2022-09-30T15:21:57.660Z,16.25
2022-09-30T15:24:27.659Z,16.18
2022-09-30T15:26:57.076Z,16.18
2022-09-30T15:29:25.146Z,16.22
2022-09-30T15:32:01.089Z,16.22
2022-09-30T15:34:30.497Z,16.25
2022-09-30T15:37:04.322Z,16.16
2022-09-30T15:39:53.794Z,16.06
2022-09-30T15:42:31.119Z,15.97
2022-09-30T15:44:59.780Z,15.91
2022-09-30T15:47:28.624Z,15.82
2022-09-30T15:49:56.935Z,15.77
2022-09-30T15:52:37.365Z,15.75
2022-09-30T15:55:41.815Z,15.75
2022-09-30T15:58:32.751Z,15.75
2022-09-30T16:01:13.872Z,15.77
2022-09-30T16:03:48.428Z,15.75
2022-09-30T16:06:17.311Z,15.68
2022-09-30T16:08:47.256Z,15.58
2022-09-30T16:11:22.406Z,15.47
2022-09-30T16:13:50.643Z,15.37
2022-09-30T16:16:22.328Z,15.29
2022-09-30T16:18:50.907Z,15.19
2022-09-30T16:21:43.635Z,15.09
2022-09-30T16:24:32.369Z,14.99
2022-09-30T16:27:20.943Z,14.86
2022-09-30T16:29:49.027Z,14.78
2022-09-30T16:32:17.189Z,14.67
2022-09-30T16:34:45.170Z,14.56
2022-09-30T16:37:15.108Z,14.47
2022-09-30T16:39:43.324Z,14.36
2022-09-30T16:42:14.075Z,14.26
2022-09-30T16:44:43.950Z,14.17
2022-09-30T16:47:16.567Z,14.06
2022-09-30T16:49:46.949Z,14.00
2022-09-30T16:52:15.270Z,13.92
2022-09-30T16:54:43.788Z,13.83
2022-09-30T16:57:16.147Z,13.75
2022-09-30T16:59:44.243Z,13.63
2022-09-30T17:02:15.032Z,13.57
2022-09-30T17:04:45.317Z,13.47
2022-09-30T17:07:16.119Z,13.38
2022-09-30T17:09:44.520Z,13.32
2022-09-30T17:12:13.161Z,13.27
2022-09-30T17:14:43.800Z,13.19
2022-09-30T17:17:13.635Z,13.08
2022-09-30T17:19:42.321Z,13.01
2022-09-30T17:22:10.361Z,12.91
2022-09-30T17:24:38.349Z,12.83
2022-09-30T17:27:07.434Z,12.73
2022-09-30T17:29:42.056Z,12.65
2022-09-30T17:32:11.741Z,12.56
2022-09-30T17:34:41.248Z,12.49
2022-09-30T17:37:09.347Z,12.39
2022-09-30T17:39:37.319Z,12.36
2022-09-30T17:42:23.227Z,12.29
2022-09-30T17:44:51.270Z,12.24
2022-09-30T17:47:21.275Z,12.18
2022-09-30T17:49:49.284Z,12.14
2022-09-30T17:52:18.088Z,12.07
2022-09-30T17:54:51.165Z,11.97
2022-09-30T17:57:20.497Z,11.94
2022-09-30T17:59:48.525Z,11.87
2022-09-30T18:02:17.471Z,11.84
2022-09-30T18:04:47.484Z,11.71
2022-09-30T18:07:15.856Z,11.63
2022-09-30T18:09:43.872Z,11.56
2022-09-30T18:12:12.516Z,11.49
2022-09-30T18:14:40.772Z,11.43
2022-09-30T18:17:08.751Z,11.36
2022-09-30T18:19:38.552Z,11.32
2022-09-30T18:22:07.933Z,11.28
2022-09-30T18:24:54.018Z,11.25
2022-09-30T18:27:22.733Z,11.24
2022-09-30T18:29:50.796Z,11.16
2022-09-30T18:32:18.742Z,11.18
2022-09-30T18:34:46.719Z,11.16
2022-09-30T18:37:16.084Z,11.10
2022-09-30T18:39:44.086Z,11.10
2022-09-30T18:42:12.049Z,11.05
2022-09-30T18:44:40.158Z,11.04
2022-09-30T18:47:08.113Z,11.01
2022-09-30T18:49:36.164Z,10.97
2022-09-30T18:52:04.657Z,10.94
2022-09-30T18:54:34.204Z,10.94
2022-09-30T18:57:02.414Z,10.89
2022-09-30T18:59:30.660Z,10.84
2022-09-30T19:02:00.300Z,10.84
2022-09-30T19:04:29.235Z,10.80
2022-09-30T19:06:57.291Z,10.77
2022-09-30T19:09:26.656Z,10.73
2022-09-30T19:11:56.063Z,10.67
2022-09-30T19:14:24.766Z,10.64
2022-09-30T19:16:53.709Z,10.60
2022-09-30T19:19:22.793Z,10.56
2022-09-30T19:21:51.136Z,10.55
2022-09-30T19:24:24.061Z,10.57
2022-09-30T19:26:55.998Z,10.57
2022-09-30T19:29:24.934Z,10.56
2022-09-30T19:31:52.959Z,10.55
2022-09-30T19:34:30.629Z,10.55
2022-09-30T19:37:00.265Z,10.50
2022-09-30T19:39:39.965Z,10.46
2022-09-30T19:42:16.969Z,10.42
2022-09-30T19:44:44.961Z,10.40
2022-09-30T19:47:13.053Z,10.37
2022-09-30T19:49:41.023Z,10.33
2022-09-30T19:52:17.890Z,10.26
2022-09-30T19:54:48.388Z,10.27
2022-09-30T19:57:17.599Z,10.23
2022-09-30T19:59:46.060Z,10.20
2022-09-30T20:02:14.101Z,10.18
2022-09-30T20:04:43.789Z,10.19
2022-09-30T20:07:12.054Z,10.16
2022-09-30T20:09:40.066Z,10.16
2022-09-30T20:12:08.078Z,10.13
2022-09-30T20:14:55.216Z,10.12
2022-09-30T20:17:23.532Z,10.09
2022-09-30T20:20:05.547Z,10.09
2022-09-30T20:22:33.569Z,10.03
2022-09-30T20:25:01.559Z,9.98
2022-09-30T20:27:32.959Z,9.97
2022-09-30T20:30:02.436Z,9.97
2022-09-30T20:32:31.168Z,9.95
2022-09-30T20:34:59.558Z,9.94
2022-09-30T20:37:27.489Z,9.92
2022-09-30T20:39:56.684Z,9.92
2022-09-30T20:42:28.165Z,9.88
2022-09-30T20:45:01.124Z,9.85
2022-09-30T20:47:30.473Z,9.88
2022-09-30T20:49:58.591Z,9.84
2022-09-30T20:52:27.048Z,9.82
2022-09-30T20:54:56.915Z,9.79
2022-09-30T20:57:24.920Z,9.74
2022-09-30T20:59:52.903Z,9.68
2022-09-30T21:02:24.245Z,9.65
2022-09-30T21:04:53.695Z,9.61
2022-09-30T21:07:22.163Z,9.64
2022-09-30T21:09:50.194Z,9.67
2022-09-30T21:12:18.655Z,9.68
2022-09-30T21:14:46.727Z,9.70
2022-09-30T21:17:14.795Z,9.67
2022-09-30T21:19:43.771Z,9.64
2022-09-30T21:22:13.300Z,9.57
2022-09-30T21:24:41.300Z,9.55
2022-09-30T21:27:09.745Z,9.51
2022-09-30T21:29:37.732Z,9.47
2022-09-30T21:32:05.786Z,9.40
2022-09-30T21:34:34.088Z,9.39
2022-09-30T21:37:02.103Z,9.30
2022-09-30T21:39:31.873Z,9.27
2022-09-30T21:42:00.032Z,9.23
2022-09-30T21:44:28.219Z,9.18
2022-09-30T21:46:56.259Z,9.15
2022-09-30T21:49:25.047Z,9.08
2022-09-30T21:51:53.845Z,9.03
2022-09-30T21:54:23.319Z,9.00
2022-09-30T21:56:53.466Z,8.95
2022-09-30T21:59:21.466Z,8.95
2022-09-30T22:01:49.598Z,8.95
2022-09-30T22:04:19.505Z,8.93
2022-09-30T22:06:47.915Z,8.89
2022-09-30T22:09:16.302Z,8.89
2022-09-30T22:11:44.433Z,8.88
2022-09-30T22:14:13.746Z,8.85
2022-09-30T22:16:41.850Z,8.86
2022-09-30T22:19:10.053Z,8.85
2022-09-30T22:21:38.379Z,8.85
2022-09-30T22:24:07.956Z,8.82
2022-09-30T22:26:38.333Z,8.83
2022-09-30T22:29:08.261Z,8.83
2022-09-30T22:31:38.640Z,8.83
2022-09-30T22:34:25.843Z,8.81
2022-09-30T22:37:12.226Z,8.85
2022-09-30T22:39:40.194Z,8.85
2022-09-30T22:42:08.199Z,8.83
2022-09-30T22:44:37.756Z,8.83
2022-09-30T22:47:11.186Z,8.83
2022-09-30T22:49:39.195Z,8.83
2022-09-30T22:52:07.527Z,8.86
2022-09-30T22:54:37.264Z,8.85
2022-09-30T22:57:07.776Z,8.79
2022-09-30T22:59:36.329Z,8.78
2022-09-30T23:02:05.226Z,8.76
2022-09-30T23:04:36.081Z,8.82
2022-09-30T23:07:05.324Z,8.79
2022-09-30T23:09:33.356Z,8.79
2022-09-30T23:12:01.544Z,8.81
2022-09-30T23:14:29.670Z,8.82
2022-09-30T23:16:57.764Z,8.78
2022-09-30T23:19:25.933Z,8.76
2022-09-30T23:21:55.419Z,8.76
2022-09-30T23:24:23.330Z,8.73
2022-09-30T23:26:51.296Z,8.73
2022-09-30T23:29:19.342Z,8.71
2022-09-30T23:31:48.119Z,8.68
2022-09-30T23:34:17.699Z,8.65
2022-09-30T23:36:46.468Z,8.67
2022-09-30T23:39:18.417Z,8.62
2022-09-30T23:41:46.494Z,8.60
2022-09-30T23:44:18.739Z,8.58
2022-09-30T23:47:00.800Z,8.60
2022-09-30T23:49:29.287Z,8.55
2022-09-30T23:51:57.603Z,8.55
2022-09-30T23:54:26.930Z,8.50
2022-09-30T23:56:55.153Z,8.45
2022-09-30T23:59:23.172Z,8.42
